sensor_id;sensor_type;location;lat;lon;timestamp;P1;durP1;ratioP1;P2;durP2;ratioP2
1995;SDS011;38556;47.068;15.408;2023-03-14T00:00:07;23.60;;;22.00;;
1995;SDS011;38556;47.068;15.408;2023-03-14T00:02:36;23.40;;;21.70;;
1995;SDS011;38556;47.068;15.408;2023-03-14T00:05:04;25.33;;;23.52;;
1995;SDS011;38556;47.068;15.408;2023-03-14T00:07:33;24.67;;;22.77;;
1995;SDS011;38556;47.068;15.408;2023-03-14T00:10:01;25.20;;;23.42;;
1995;SDS011;38556;47.068;15.408;2023-03-14T00:12:30;24.75;;;22.65;;
1995;SDS011;38556;47.068;15.408;2023-03-14T00:14:58;24.63;;;22.67;;
1995;SDS011;38556;47.068;15.408;2023-03-14T00:17:30;24.05;;;22.35;;
1995;SDS011;38556;47.068;15.408;2023-03-14T00:19:57;25.50;;;23.40;;
1995;SDS011;38556;47.068;15.408;2023-03-14T00:22:30;24.15;;;22.25;;
1995;SDS011;38556;47.068;15.408;2023-03-14T00:24:57;25.45;;;23.73;;
1995;SDS011;38556;47.068;15.408;2023-03-14T00:27:24;24.55;;;22.85;;
1995;SDS011;38556;47.068;15.408;2023-03-14T00:29:51;24.80;;;23.10;;
1995;SDS011;38556;47.068;15.408;2023-03-14T00:32:19;24.80;;;23.20;;
1995;SDS011;38556;47.068;15.408;2023-03-14T00:34:48;26.25;;;24.35;;
1995;SDS011;38556;47.068;15.408;2023-03-14T00:37:15;25.85;;;23.95;;
1995;SDS011;38556;47.068;15.408;2023-03-14T00:39:42;26.83;;;24.92;;
1995;SDS011;38556;47.068;15.408;2023-03-14T00:42:10;26.38;;;24.48;;
1995;SDS011;38556;47.068;15.408;2023-03-14T00:44:37;27.10;;;24.90;;
1995;SDS011;38556;47.068;15.408;2023-03-14T00:47:04;25.20;;;23.45;;
1995;SDS011;38556;47.068;15.408;2023-03-14T00:49:32;26.17;;;24.02;;
1995;SDS011;38556;47.068;15.408;2023-03-14T00:52:00;25.02;;;22.77;;
1995;SDS011;38556;47.068;15.408;2023-03-14T00:54:27;25.65;;;23.75;;
1995;SDS011;38556;47.068;15.408;2023-03-14T00:56:55;25.65;;;23.75;;
1995;SDS011;38556;47.068;15.408;2023-03-14T00:59:22;24.88;;;23.10;;
1995;SDS011;38556;47.068;15.408;2023-03-14T01:01:50;24.17;;;22.50;;
1995;SDS011;38556;47.068;15.408;2023-03-14T01:04:17;23.92;;;22.23;;
1995;SDS011;38556;47.068;15.408;2023-03-14T01:06:44;24.23;;;22.45;;
1995;SDS011;38556;47.068;15.408;2023-03-14T01:09:13;24.80;;;22.75;;
1995;SDS011;38556;47.068;15.408;2023-03-14T01:11:43;23.77;;;22.05;;
1995;SDS011;38556;47.068;15.408;2023-03-14T01:14:12;24.13;;;22.40;;
1995;SDS011;38556;47.068;15.408;2023-03-14T01:16:40;24.10;;;22.50;;
1995;SDS011;38556;47.068;15.408;2023-03-14T01:19:07;24.65;;;22.85;;
1995;SDS011;38556;47.068;15.408;2023-03-14T01:21:36;24.20;;;22.55;;
1995;SDS011;38556;47.068;15.408;2023-03-14T01:24:03;24.30;;;22.60;;
1995;SDS011;38556;47.068;15.408;2023-03-14T01:26:34;25.20;;;23.40;;
1995;SDS011;38556;47.068;15.408;2023-03-14T01:29:02;24.38;;;22.73;;
1995;SDS011;38556;47.068;15.408;2023-03-14T01:31:29;26.23;;;24.42;;
1995;SDS011;38556;47.068;15.408;2023-03-14T01:33:57;24.77;;;22.70;;
1995;SDS011;38556;47.068;15.408;2023-03-14T01:36:24;25.17;;;23.38;;
1995;SDS011;38556;47.068;15.408;2023-03-14T01:38:51;25.98;;;24.17;;
1995;SDS011;38556;47.068;15.408;2023-03-14T01:41:20;25.13;;;23.42;;
1995;SDS011;38556;47.068;15.408;2023-03-14T01:43:50;24.27;;;22.52;;
1995;SDS011;38556;47.068;15.408;2023-03-14T01:46:23;24.05;;;22.50;;
1995;SDS011;38556;47.068;15.408;2023-03-14T01:48:59;25.48;;;23.42;;
1995;SDS011;38556;47.068;15.408;2023-03-14T01:51:32;24.95;;;23.13;;
1995;SDS011;38556;47.068;15.408;2023-03-14T01:54:06;24.40;;;22.63;;
1995;SDS011;38556;47.068;15.408;2023-03-14T01:56:38;22.27;;;20.92;;
1995;SDS011;38556;47.068;15.408;2023-03-14T01:59:09;25.02;;;23.25;;
1995;SDS011;38556;47.068;15.408;2023-03-14T02:01:38;25.80;;;23.80;;
1995;SDS011;38556;47.068;15.408;2023-03-14T02:04:09;24.45;;;22.85;;
1995;SDS011;38556;47.068;15.408;2023-03-14T02:06:40;24.38;;;22.75;;
1995;SDS011;38556;47.068;15.408;2023-03-14T02:09:13;24.27;;;22.38;;
1995;SDS011;38556;47.068;15.408;2023-03-14T02:11:41;23.80;;;22.33;;
1995;SDS011;38556;47.068;15.408;2023-03-14T02:14:13;24.13;;;22.42;;
1995;SDS011;38556;47.068;15.408;2023-03-14T02:16:48;25.13;;;23.10;;
1995;SDS011;38556;47.068;15.408;2023-03-14T02:19:16;25.10;;;23.10;;
1995;SDS011;38556;47.068;15.408;2023-03-14T02:21:49;24.02;;;22.27;;
1995;SDS011;38556;47.068;15.408;2023-03-14T02:24:23;25.00;;;23.15;;
1995;SDS011;38556;47.068;15.408;2023-03-14T02:27:02;23.52;;;21.90;;
1995;SDS011;38556;47.068;15.408;2023-03-14T02:29:31;23.88;;;22.17;;
1995;SDS011;38556;47.068;15.408;2023-03-14T02:32:02;24.10;;;22.05;;
1995;SDS011;38556;47.068;15.408;2023-03-14T02:34:30;23.80;;;22.25;;
1995;SDS011;38556;47.068;15.408;2023-03-14T02:36:58;23.15;;;21.65;;
1995;SDS011;38556;47.068;15.408;2023-03-14T02:39:28;22.80;;;21.30;;
1995;SDS011;38556;47.068;15.408;2023-03-14T02:42:03;23.27;;;21.58;;
1995;SDS011;38556;47.068;15.408;2023-03-14T02:44:30;22.67;;;21.13;;
1995;SDS011;38556;47.068;15.408;2023-03-14T02:46:57;21.83;;;20.38;;
1995;SDS011;38556;47.068;15.408;2023-03-14T02:49:25;23.27;;;21.77;;
1995;SDS011;38556;47.068;15.408;2023-03-14T02:51:56;23.30;;;21.70;;
1995;SDS011;38556;47.068;15.408;2023-03-14T02:54:23;23.55;;;21.88;;
1995;SDS011;38556;47.068;15.408;2023-03-14T02:56:50;23.50;;;21.80;;
1995;SDS011;38556;47.068;15.408;2023-03-14T02:59:19;22.88;;;21.15;;
1995;SDS011;38556;47.068;15.408;2023-03-14T03:01:46;21.90;;;20.70;;
1995;SDS011;38556;47.068;15.408;2023-03-14T03:04:13;21.85;;;20.45;;
1995;SDS011;38556;47.068;15.408;2023-03-14T03:06:41;22.23;;;20.63;;
1995;SDS011;38556;47.068;15.408;2023-03-14T03:09:08;23.15;;;21.55;;
1995;SDS011;38556;47.068;15.408;2023-03-14T03:11:35;23.02;;;21.50;;
1995;SDS011;38556;47.068;15.408;2023-03-14T03:14:02;22.95;;;21.52;;
1995;SDS011;38556;47.068;15.408;2023-03-14T03:16:31;22.20;;;20.90;;
1995;SDS011;38556;47.068;15.408;2023-03-14T03:18:58;23.10;;;21.42;;
1995;SDS011;38556;47.068;15.408;2023-03-14T03:21:25;23.50;;;21.92;;
1995;SDS011;38556;47.068;15.408;2023-03-14T03:23:52;22.88;;;21.42;;
1995;SDS011;38556;47.068;15.408;2023-03-14T03:26:20;22.83;;;21.42;;
1995;SDS011;38556;47.068;15.408;2023-03-14T03:28:49;23.15;;;21.35;;
1995;SDS011;38556;47.068;15.408;2023-03-14T03:31:17;24.20;;;22.42;;
1995;SDS011;38556;47.068;15.408;2023-03-14T03:33:46;22.40;;;21.05;;
1995;SDS011;38556;47.068;15.408;2023-03-14T03:36:13;22.00;;;20.70;;
1995;SDS011;38556;47.068;15.408;2023-03-14T03:38:40;23.17;;;21.67;;
1995;SDS011;38556;47.068;15.408;2023-03-14T03:41:08;22.38;;;20.85;;
1995;SDS011;38556;47.068;15.408;2023-03-14T03:43:35;21.98;;;20.58;;
1995;SDS011;38556;47.068;15.408;2023-03-14T03:46:03;22.42;;;20.92;;
1995;SDS011;38556;47.068;15.408;2023-03-14T03:48:31;21.33;;;20.17;;
1995;SDS011;38556;47.068;15.408;2023-03-14T03:50:59;23.05;;;21.25;;
1995;SDS011;38556;47.068;15.408;2023-03-14T03:53:27;21.58;;;20.33;;
1995;SDS011;38556;47.068;15.408;2023-03-14T03:55:54;21.40;;;20.10;;
1995;SDS011;38556;47.068;15.408;2023-03-14T03:58:21;23.02;;;21.10;;
1995;SDS011;38556;47.068;15.408;2023-03-14T04:00:49;25.80;;;23.67;;
1995;SDS011;38556;47.068;15.408;2023-03-14T04:03:16;25.13;;;23.27;;
1995;SDS011;38556;47.068;15.408;2023-03-14T04:05:43;22.35;;;20.92;;
1995;SDS011;38556;47.068;15.408;2023-03-14T04:08:12;22.85;;;21.55;;
1995;SDS011;38556;47.068;15.408;2023-03-14T04:10:40;21.75;;;20.27;;
1995;SDS011;38556;47.068;15.408;2023-03-14T04:13:07;22.50;;;20.52;;
1995;SDS011;38556;47.068;15.408;2023-03-14T04:15:34;21.73;;;20.17;;
1995;SDS011;38556;47.068;15.408;2023-03-14T04:18:01;22.85;;;21.15;;
1995;SDS011;38556;47.068;15.408;2023-03-14T04:20:29;21.55;;;20.17;;
1995;SDS011;38556;47.068;15.408;2023-03-14T04:22:56;20.90;;;19.70;;
1995;SDS011;38556;47.068;15.408;2023-03-14T04:25:25;21.60;;;20.27;;
1995;SDS011;38556;47.068;15.408;2023-03-14T04:27:52;22.20;;;20.83;;
1995;SDS011;38556;47.068;15.408;2023-03-14T04:30:19;20.20;;;18.90;;
1995;SDS011;38556;47.068;15.408;2023-03-14T04:32:47;22.45;;;20.73;;
1995;SDS011;38556;47.068;15.408;2023-03-14T04:35:14;21.13;;;19.63;;
1995;SDS011;38556;47.068;15.408;2023-03-14T04:37:41;21.17;;;19.88;;
1995;SDS011;38556;47.068;15.408;2023-03-14T04:40:09;21.52;;;19.83;;
1995;SDS011;38556;47.068;15.408;2023-03-14T04:42:38;21.58;;;20.13;;
1995;SDS011;38556;47.068;15.408;2023-03-14T04:45:06;20.88;;;19.48;;
1995;SDS011;38556;47.068;15.408;2023-03-14T04:47:34;21.75;;;20.45;;
1995;SDS011;38556;47.068;15.408;2023-03-14T04:50:02;21.13;;;19.55;;
1995;SDS011;38556;47.068;15.408;2023-03-14T04:52:29;20.77;;;19.48;;
1995;SDS011;38556;47.068;15.408;2023-03-14T04:54:57;20.10;;;18.88;;
1995;SDS011;38556;47.068;15.408;2023-03-14T04:57:24;20.83;;;19.40;;
1995;SDS011;38556;47.068;15.408;2023-03-14T04:59:52;22.40;;;20.70;;
1995;SDS011;38556;47.068;15.408;2023-03-14T05:02:20;23.77;;;22.35;;
1995;SDS011;38556;47.068;15.408;2023-03-14T05:04:47;23.30;;;21.70;;
1995;SDS011;38556;47.068;15.408;2023-03-14T05:07:14;21.40;;;20.20;;
1995;SDS011;38556;47.068;15.408;2023-03-14T05:09:42;22.02;;;20.83;;
1995;SDS011;38556;47.068;15.408;2023-03-14T05:12:09;22.55;;;21.15;;
1995;SDS011;38556;47.068;15.408;2023-03-14T05:14:36;22.42;;;20.92;;
1995;SDS011;38556;47.068;15.408;2023-03-14T05:17:06;21.95;;;20.60;;
1995;SDS011;38556;47.068;15.408;2023-03-14T05:19:33;21.60;;;20.17;;
1995;SDS011;38556;47.068;15.408;2023-03-14T05:22:01;21.13;;;19.98;;
1995;SDS011;38556;47.068;15.408;2023-03-14T05:24:29;20.70;;;19.60;;
1995;SDS011;38556;47.068;15.408;2023-03-14T05:26:56;21.25;;;19.95;;
1995;SDS011;38556;47.068;15.408;2023-03-14T05:29:23;21.67;;;20.45;;
1995;SDS011;38556;47.068;15.408;2023-03-14T05:31:51;21.45;;;20.25;;
1995;SDS011;38556;47.068;15.408;2023-03-14T05:34:19;22.27;;;20.70;;
1995;SDS011;38556;47.068;15.408;2023-03-14T05:36:47;23.88;;;21.77;;
1995;SDS011;38556;47.068;15.408;2023-03-14T05:39:14;24.80;;;23.00;;
1995;SDS011;38556;47.068;15.408;2023-03-14T05:41:41;25.35;;;23.40;;
1995;SDS011;38556;47.068;15.408;2023-03-14T05:44:08;24.52;;;22.35;;
1995;SDS011;38556;47.068;15.408;2023-03-14T05:46:35;22.30;;;20.80;;
1995;SDS011;38556;47.068;15.408;2023-03-14T05:49:03;22.58;;;21.17;;
1995;SDS011;38556;47.068;15.408;2023-03-14T05:51:32;22.45;;;21.08;;
1995;SDS011;38556;47.068;15.408;2023-03-14T05:53:59;22.98;;;21.42;;
1995;SDS011;38556;47.068;15.408;2023-03-14T05:56:26;24.60;;;23.08;;
1995;SDS011;38556;47.068;15.408;2023-03-14T05:58:53;25.98;;;24.38;;
1995;SDS011;38556;47.068;15.408;2023-03-14T06:01:21;24.75;;;23.00;;
1995;SDS011;38556;47.068;15.408;2023-03-14T06:03:48;22.42;;;20.90;;
1995;SDS011;38556;47.068;15.408;2023-03-14T06:06:15;29.88;;;21.45;;
1995;SDS011;38556;47.068;15.408;2023-03-14T06:08:44;23.70;;;22.00;;
1995;SDS011;38556;47.068;15.408;2023-03-14T06:11:12;25.08;;;23.20;;
1995;SDS011;38556;47.068;15.408;2023-03-14T06:13:39;23.83;;;22.30;;
1995;SDS011;38556;47.068;15.408;2023-03-14T06:16:06;23.30;;;22.00;;
1995;SDS011;38556;47.068;15.408;2023-03-14T06:18:34;23.75;;;22.35;;
1995;SDS011;38556;47.068;15.408;2023-03-14T06:21:02;25.13;;;23.52;;
1995;SDS011;38556;47.068;15.408;2023-03-14T06:23:29;24.40;;;22.80;;
1995;SDS011;38556;47.068;15.408;2023-03-14T06:25:58;24.42;;;23.13;;
1995;SDS011;38556;47.068;15.408;2023-03-14T06:28:26;25.40;;;23.92;;
1995;SDS011;38556;47.068;15.408;2023-03-14T06:30:53;34.25;;;31.38;;
1995;SDS011;38556;47.068;15.408;2023-03-14T06:33:20;31.05;;;28.90;;
1995;SDS011;38556;47.068;15.408;2023-03-14T06:35:48;26.65;;;24.73;;
1995;SDS011;38556;47.068;15.408;2023-03-14T06:38:15;25.42;;;23.85;;
1995;SDS011;38556;47.068;15.408;2023-03-14T06:40:42;28.95;;;26.58;;
1995;SDS011;38556;47.068;15.408;2023-03-14T06:43:11;27.08;;;24.92;;
1995;SDS011;38556;47.068;15.408;2023-03-14T06:45:39;28.08;;;25.98;;
1995;SDS011;38556;47.068;15.408;2023-03-14T06:48:06;24.08;;;22.63;;
1995;SDS011;38556;47.068;15.408;2023-03-14T06:50:33;26.63;;;24.63;;
1995;SDS011;38556;47.068;15.408;2023-03-14T06:53:01;24.27;;;22.70;;
1995;SDS011;38556;47.068;15.408;2023-03-14T06:55:28;24.27;;;22.70;;
1995;SDS011;38556;47.068;15.408;2023-03-14T06:57:56;23.70;;;22.30;;
1995;SDS011;38556;47.068;15.408;2023-03-14T07:00:24;23.58;;;21.83;;
1995;SDS011;38556;47.068;15.408;2023-03-14T07:02:53;23.20;;;21.60;;
1995;SDS011;38556;47.068;15.408;2023-03-14T07:05:20;24.77;;;23.23;;
1995;SDS011;38556;47.068;15.408;2023-03-14T07:07:47;21.92;;;20.73;;
1995;SDS011;38556;47.068;15.408;2023-03-14T07:10:15;21.92;;;20.52;;
1995;SDS011;38556;47.068;15.408;2023-03-14T07:12:43;23.92;;;22.40;;
1995;SDS011;38556;47.068;15.408;2023-03-14T07:15:10;23.85;;;22.45;;
1995;SDS011;38556;47.068;15.408;2023-03-14T07:17:39;23.25;;;21.73;;
1995;SDS011;38556;47.068;15.408;2023-03-14T07:20:07;22.75;;;21.45;;
1995;SDS011;38556;47.068;15.408;2023-03-14T07:22:36;21.73;;;20.38;;
1995;SDS011;38556;47.068;15.408;2023-03-14T07:25:03;23.60;;;21.77;;
1995;SDS011;38556;47.068;15.408;2023-03-14T07:27:31;21.67;;;20.20;;
1995;SDS011;38556;47.068;15.408;2023-03-14T07:29:58;23.80;;;22.20;;
1995;SDS011;38556;47.068;15.408;2023-03-14T07:32:26;23.90;;;22.50;;
1995;SDS011;38556;47.068;15.408;2023-03-14T07:34:54;23.98;;;22.40;;
1995;SDS011;38556;47.068;15.408;2023-03-14T07:37:22;23.65;;;22.25;;
1995;SDS011;38556;47.068;15.408;2023-03-14T07:39:49;24.02;;;22.20;;
1995;SDS011;38556;47.068;15.408;2023-03-14T07:42:17;23.02;;;21.58;;
1995;SDS011;38556;47.068;15.408;2023-03-14T07:44:44;23.10;;;21.55;;
1995;SDS011;38556;47.068;15.408;2023-03-14T07:47:11;21.70;;;20.30;;
1995;SDS011;38556;47.068;15.408;2023-03-14T07:49:38;23.10;;;21.50;;
1995;SDS011;38556;47.068;15.408;2023-03-14T07:52:07;23.55;;;21.98;;
1995;SDS011;38556;47.068;15.408;2023-03-14T07:54:35;23.25;;;21.75;;
1995;SDS011;38556;47.068;15.408;2023-03-14T07:57:02;22.38;;;20.77;;
1995;SDS011;38556;47.068;15.408;2023-03-14T07:59:30;22.48;;;21.27;;
1995;SDS011;38556;47.068;15.408;2023-03-14T08:01:57;23.55;;;22.15;;
1995;SDS011;38556;47.068;15.408;2023-03-14T08:04:25;22.10;;;20.90;;
1995;SDS011;38556;47.068;15.408;2023-03-14T08:06:53;22.30;;;20.83;;
1995;SDS011;38556;47.068;15.408;2023-03-14T08:09:22;22.80;;;21.30;;
1995;SDS011;38556;47.068;15.408;2023-03-14T08:11:49;22.40;;;21.00;;
1995;SDS011;38556;47.068;15.408;2023-03-14T08:14:16;22.58;;;21.25;;
1995;SDS011;38556;47.068;15.408;2023-03-14T08:16:44;22.48;;;21.00;;
1995;SDS011;38556;47.068;15.408;2023-03-14T08:19:11;22.63;;;21.30;;
1995;SDS011;38556;47.068;15.408;2023-03-14T08:21:39;22.30;;;20.92;;
1995;SDS011;38556;47.068;15.408;2023-03-14T08:24:06;23.08;;;21.67;;
1995;SDS011;38556;47.068;15.408;2023-03-14T08:26:35;22.48;;;20.90;;
1995;SDS011;38556;47.068;15.408;2023-03-14T08:29:02;21.83;;;20.63;;
1995;SDS011;38556;47.068;15.408;2023-03-14T08:31:30;21.63;;;20.23;;
1995;SDS011;38556;47.068;15.408;2023-03-14T08:33:58;22.10;;;20.70;;
1995;SDS011;38556;47.068;15.408;2023-03-14T08:36:26;21.75;;;20.65;;
1995;SDS011;38556;47.068;15.408;2023-03-14T08:38:53;22.40;;;21.10;;
1995;SDS011;38556;47.068;15.408;2023-03-14T08:41:21;21.38;;;20.17;;
1995;SDS011;38556;47.068;15.408;2023-03-14T08:43:49;22.00;;;20.80;;
1995;SDS011;38556;47.068;15.408;2023-03-14T08:46:17;22.58;;;21.27;;
1995;SDS011;38556;47.068;15.408;2023-03-14T08:48:44;20.85;;;19.65;;
1995;SDS011;38556;47.068;15.408;2023-03-14T08:51:13;21.65;;;19.95;;
1995;SDS011;38556;47.068;15.408;2023-03-14T08:53:40;20.95;;;19.75;;
1995;SDS011;38556;47.068;15.408;2023-03-14T08:56:09;21.60;;;19.98;;
1995;SDS011;38556;47.068;15.408;2023-03-14T08:58:36;21.20;;;19.40;;
1995;SDS011;38556;47.068;15.408;2023-03-14T09:01:05;21.38;;;20.17;;
1995;SDS011;38556;47.068;15.408;2023-03-14T09:03:34;21.77;;;20.30;;
1995;SDS011;38556;47.068;15.408;2023-03-14T09:06:02;21.02;;;19.70;;
1995;SDS011;38556;47.068;15.408;2023-03-14T09:08:30;22.52;;;21.48;;
1995;SDS011;38556;47.068;15.408;2023-03-14T09:10:59;22.20;;;20.97;;
1995;SDS011;38556;47.068;15.408;2023-03-14T09:13:26;23.47;;;21.77;;
1995;SDS011;38556;47.068;15.408;2023-03-14T09:15:54;22.47;;;20.83;;
1995;SDS011;38556;47.068;15.408;2023-03-14T09:18:23;22.33;;;21.00;;
1995;SDS011;38556;47.068;15.408;2023-03-14T09:20:51;24.73;;;23.35;;
1995;SDS011;38556;47.068;15.408;2023-03-14T09:23:18;21.73;;;20.63;;
1995;SDS011;38556;47.068;15.408;2023-03-14T09:25:46;21.75;;;20.30;;
1995;SDS011;38556;47.068;15.408;2023-03-14T09:28:13;22.13;;;20.65;;
1995;SDS011;38556;47.068;15.408;2023-03-14T09:30:41;23.23;;;21.75;;
1995;SDS011;38556;47.068;15.408;2023-03-14T09:33:08;22.07;;;20.93;;
1995;SDS011;38556;47.068;15.408;2023-03-14T09:35:37;22.52;;;21.00;;
1995;SDS011;38556;47.068;15.408;2023-03-14T09:38:04;22.13;;;20.93;;
1995;SDS011;38556;47.068;15.408;2023-03-14T09:40:33;20.47;;;19.33;;
1995;SDS011;38556;47.068;15.408;2023-03-14T09:43:02;22.80;;;21.50;;
1995;SDS011;38556;47.068;15.408;2023-03-14T09:45:31;22.35;;;20.77;;
1995;SDS011;38556;47.068;15.408;2023-03-14T09:48:02;23.08;;;21.65;;
1995;SDS011;38556;47.068;15.408;2023-03-14T09:50:32;22.25;;;21.00;;
1995;SDS011;38556;47.068;15.408;2023-03-14T09:53:06;22.10;;;21.10;;
1995;SDS011;38556;47.068;15.408;2023-03-14T09:55:38;24.30;;;23.03;;
1995;SDS011;38556;47.068;15.408;2023-03-14T09:58:09;24.73;;;23.20;;
1995;SDS011;38556;47.068;15.408;2023-03-14T10:00:39;21.60;;;20.30;;
1995;SDS011;38556;47.068;15.408;2023-03-14T10:03:24;21.03;;;20.03;;
1995;SDS011;38556;47.068;15.408;2023-03-14T10:05:54;22.42;;;20.92;;
1995;SDS011;38556;47.068;15.408;2023-03-14T10:08:22;21.95;;;20.67;;
1995;SDS011;38556;47.068;15.408;2023-03-14T10:10:49;24.65;;;23.25;;
1995;SDS011;38556;47.068;15.408;2023-03-14T10:13:19;22.83;;;21.40;;
1995;SDS011;38556;47.068;15.408;2023-03-14T10:15:51;23.10;;;21.87;;
1995;SDS011;38556;47.068;15.408;2023-03-14T10:18:21;21.30;;;20.05;;
1995;SDS011;38556;47.068;15.408;2023-03-14T10:20:52;23.55;;;22.13;;
1995;SDS011;38556;47.068;15.408;2023-03-14T10:23:31;21.70;;;20.23;;
1995;SDS011;38556;47.068;15.408;2023-03-14T10:26:07;20.30;;;19.20;;
1995;SDS011;38556;47.068;15.408;2023-03-14T10:28:38;21.40;;;20.10;;
1995;SDS011;38556;47.068;15.408;2023-03-14T10:31:08;19.67;;;18.67;;
1995;SDS011;38556;47.068;15.408;2023-03-14T10:33:36;20.17;;;19.10;;
1995;SDS011;38556;47.068;15.408;2023-03-14T10:36:06;20.40;;;19.40;;
1995;SDS011;38556;47.068;15.408;2023-03-14T10:38:46;23.37;;;21.33;;
1995;SDS011;38556;47.068;15.408;2023-03-14T10:41:15;22.07;;;20.33;;
1995;SDS011;38556;47.068;15.408;2023-03-14T10:43:45;21.20;;;20.07;;
1995;SDS011;38556;47.068;15.408;2023-03-14T10:46:18;20.50;;;19.30;;
1995;SDS011;38556;47.068;15.408;2023-03-14T10:48:47;21.20;;;20.00;;
1995;SDS011;38556;47.068;15.408;2023-03-14T10:51:19;19.97;;;18.90;;
1995;SDS011;38556;47.068;15.408;2023-03-14T10:53:55;19.50;;;18.70;;
1995;SDS011;38556;47.068;15.408;2023-03-14T10:56:25;19.97;;;19.17;;
1995;SDS011;38556;47.068;15.408;2023-03-14T10:58:56;20.30;;;19.50;;
1995;SDS011;38556;47.068;15.408;2023-03-14T11:01:26;20.40;;;19.60;;
1995;SDS011;38556;47.068;15.408;2023-03-14T11:04:08;20.67;;;19.87;;
1995;SDS011;38556;47.068;15.408;2023-03-14T11:06:50;19.53;;;18.73;;
1995;SDS011;38556;47.068;15.408;2023-03-14T11:09:25;19.73;;;18.90;;
1995;SDS011;38556;47.068;15.408;2023-03-14T11:12:00;19.70;;;18.73;;
1995;SDS011;38556;47.068;15.408;2023-03-14T11:14:40;19.67;;;18.87;;
1995;SDS011;38556;47.068;15.408;2023-03-14T11:17:14;19.80;;;18.90;;
1995;SDS011;38556;47.068;15.408;2023-03-14T11:19:53;19.17;;;18.20;;
1995;SDS011;38556;47.068;15.408;2023-03-14T11:22:34;18.53;;;17.83;;
1995;SDS011;38556;47.068;15.408;2023-03-14T11:25:12;20.00;;;19.07;;
1995;SDS011;38556;47.068;15.408;2023-03-14T11:27:45;20.87;;;19.97;;
1995;SDS011;38556;47.068;15.408;2023-03-14T11:30:22;18.97;;;18.17;;
1995;SDS011;38556;47.068;15.408;2023-03-14T11:32:56;18.83;;;18.03;;
1995;SDS011;38556;47.068;15.408;2023-03-14T11:35:33;19.00;;;18.20;;
1995;SDS011;38556;47.068;15.408;2023-03-14T11:38:09;18.13;;;17.43;;
1995;SDS011;38556;47.068;15.408;2023-03-14T11:40:40;19.07;;;18.27;;
1995;SDS011;38556;47.068;15.408;2023-03-14T11:43:10;19.50;;;18.60;;
1995;SDS011;38556;47.068;15.408;2023-03-14T11:45:41;19.27;;;18.47;;
1995;SDS011;38556;47.068;15.408;2023-03-14T11:48:17;19.17;;;18.13;;
1995;SDS011;38556;47.068;15.408;2023-03-14T11:50:52;18.53;;;17.83;;
1995;SDS011;38556;47.068;15.408;2023-03-14T11:53:25;18.80;;;18.00;;
1995;SDS011;38556;47.068;15.408;2023-03-14T11:56:09;19.77;;;18.97;;
1995;SDS011;38556;47.068;15.408;2023-03-14T11:58:50;18.80;;;18.00;;
1995;SDS011;38556;47.068;15.408;2023-03-14T12:01:22;18.90;;;18.10;;
1995;SDS011;38556;47.068;15.408;2023-03-14T12:04:00;18.87;;;18.07;;
1995;SDS011;38556;47.068;15.408;2023-03-14T12:06:34;18.50;;;17.60;;
1995;SDS011;38556;47.068;15.408;2023-03-14T12:09:04;18.97;;;18.17;;
1995;SDS011;38556;47.068;15.408;2023-03-14T12:11:35;19.03;;;18.23;;
1995;SDS011;38556;47.068;15.408;2023-03-14T12:14:15;19.37;;;18.57;;
1995;SDS011;38556;47.068;15.408;2023-03-14T12:16:48;19.00;;;18.20;;
1995;SDS011;38556;47.068;15.408;2023-03-14T12:19:26;19.43;;;18.70;;
1995;SDS011;38556;47.068;15.408;2023-03-14T12:22:00;20.13;;;19.23;;
1995;SDS011;38556;47.068;15.408;2023-03-14T12:24:34;19.50;;;18.70;;
1995;SDS011;38556;47.068;15.408;2023-03-14T12:27:04;19.13;;;18.33;;
1995;SDS011;38556;47.068;15.408;2023-03-14T12:29:37;18.97;;;18.07;;
1995;SDS011;38556;47.068;15.408;2023-03-14T12:32:25;18.30;;;17.50;;
1995;SDS011;38556;47.068;15.408;2023-03-14T12:34:52;18.25;;;17.50;;
1995;SDS011;38556;47.068;15.408;2023-03-14T12:37:23;18.47;;;17.63;;
1995;SDS011;38556;47.068;15.408;2023-03-14T12:40:03;18.50;;;17.70;;
1995;SDS011;38556;47.068;15.408;2023-03-14T12:42:54;19.13;;;18.33;;
1995;SDS011;38556;47.068;15.408;2023-03-14T12:45:26;18.33;;;17.63;;
1995;SDS011;38556;47.068;15.408;2023-03-14T12:48:08;18.27;;;17.57;;
1995;SDS011;38556;47.068;15.408;2023-03-14T12:50:38;18.53;;;17.63;;
1995;SDS011;38556;47.068;15.408;2023-03-14T12:56:21;17.95;;;17.25;;
1995;SDS011;38556;47.068;15.408;2023-03-14T12:59:01;19.20;;;18.40;;
1995;SDS011;38556;47.068;15.408;2023-03-14T13:01:46;19.38;;;18.58;;
1995;SDS011;38556;47.068;15.408;2023-03-14T13:04:20;19.65;;;18.85;;
1995;SDS011;38556;47.068;15.408;2023-03-14T13:06:55;18.63;;;17.83;;
1995;SDS011;38556;47.068;15.408;2023-03-14T13:12:25;19.38;;;18.58;;
1995;SDS011;38556;47.068;15.408;2023-03-14T13:14:58;19.00;;;18.20;;
1995;SDS011;38556;47.068;15.408;2023-03-14T13:17:30;19.73;;;18.93;;
1995;SDS011;38556;47.068;15.408;2023-03-14T13:20:00;19.23;;;18.40;;
1995;SDS011;38556;47.068;15.408;2023-03-14T13:22:32;19.65;;;18.75;;
1995;SDS011;38556;47.068;15.408;2023-03-14T13:25:04;22.13;;;20.50;;
1995;SDS011;38556;47.068;15.408;2023-03-14T13:27:34;20.45;;;19.35;;
1995;SDS011;38556;47.068;15.408;2023-03-14T13:30:13;20.27;;;19.20;;
1995;SDS011;38556;47.068;15.408;2023-03-14T13:32:43;20.75;;;19.55;;
1995;SDS011;38556;47.068;15.408;2023-03-14T13:35:20;21.00;;;19.25;;
1995;SDS011;38556;47.068;15.408;2023-03-14T13:37:56;20.75;;;19.35;;
1995;SDS011;38556;47.068;15.408;2023-03-14T13:40:26;19.67;;;18.70;;
1995;SDS011;38556;47.068;15.408;2023-03-14T13:43:05;18.95;;;18.05;;
1995;SDS011;38556;47.068;15.408;2023-03-14T13:45:47;19.45;;;18.65;;
1995;SDS011;38556;47.068;15.408;2023-03-14T13:48:19;19.08;;;18.17;;
1995;SDS011;38556;47.068;15.408;2023-03-14T13:50:51;18.80;;;17.65;;
1995;SDS011;38556;47.068;15.408;2023-03-14T13:53:20;19.65;;;18.48;;
1995;SDS011;38556;47.068;15.408;2023-03-14T13:55:49;18.75;;;17.95;;
1995;SDS011;38556;47.068;15.408;2023-03-14T13:58:22;19.15;;;18.33;;
1995;SDS011;38556;47.068;15.408;2023-03-14T14:01:04;19.67;;;18.67;;
1995;SDS011;38556;47.068;15.408;2023-03-14T14:03:36;19.63;;;18.73;;
1995;SDS011;38556;47.068;15.408;2023-03-14T14:06:07;19.48;;;18.58;;
1995;SDS011;38556;47.068;15.408;2023-03-14T14:08:43;19.80;;;18.70;;
1995;SDS011;38556;47.068;15.408;2023-03-14T14:11:14;19.10;;;18.10;;
1995;SDS011;38556;47.068;15.408;2023-03-14T14:13:53;20.38;;;19.08;;
1995;SDS011;38556;47.068;15.408;2023-03-14T14:16:22;20.45;;;19.15;;
1995;SDS011;38556;47.068;15.408;2023-03-14T14:18:51;20.27;;;19.38;;
1995;SDS011;38556;47.068;15.408;2023-03-14T14:21:22;19.52;;;18.63;;
1995;SDS011;38556;47.068;15.408;2023-03-14T14:23:49;19.10;;;17.75;;
1995;SDS011;38556;47.068;15.408;2023-03-14T14:26:18;20.40;;;18.83;;
1995;SDS011;38556;47.068;15.408;2023-03-14T14:28:46;19.55;;;18.65;;
1995;SDS011;38556;47.068;15.408;2023-03-14T14:31:20;19.45;;;18.00;;
1995;SDS011;38556;47.068;15.408;2023-03-14T14:33:54;25.13;;;19.20;;
1995;SDS011;38556;47.068;15.408;2023-03-14T14:36:23;20.00;;;19.05;;
1995;SDS011;38556;47.068;15.408;2023-03-14T14:38:54;19.50;;;18.40;;
1995;SDS011;38556;47.068;15.408;2023-03-14T14:41:32;19.73;;;18.83;;